Big Bear Station Historical Data
Daily Summary for May 21, 2017 Units:  English    Metric   Both
« Previous Day
Next Day »
Daily Weekly Monthly Yearly Custom
  High: Low: Average:
Temperature: 77.0 °F 38.1 °F 57 °F
Dew Point: 39.8 °F 26.2 °F 32.8 °F
Humidity: 83 % 20 % 46 %
Wind Speed: 9.4 mph 0.0 mph 2.1 mph
Wind Gust: -999.0 mph - -
Wind:- - WSW
Pressure: 30.22 in 30.14 in -
Precipitation: 0.00 in    
Historical Graphs
 
 
Tabular Data for May 21, 2017
Time Temperature Dew Point Pressure Wind Wind Speed Wind Gust Humidity Rainfall Rate (Hourly)
00:06 44.1 °F 29.0 °F 30.16 in SSE 1.7 mph -999.0 mph 55 % 0 in
00:21 43.7 °F 31.5 °F 30.16 in South 1.7 mph -999.0 mph 62 % 0 in
00:37 43.3 °F 32.3 °F 30.16 in Calm   -999.0 mph 65 % 0 in
00:52 42.8 °F 31.8 °F 30.16 in SSE 1.7 mph -999.0 mph 65 % 0 in
01:07 42.3 °F 29.8 °F 30.15 in Calm   -999.0 mph 61 % 0 in
01:22 42.1 °F 29.2 °F 30.15 in South 1.7 mph -999.0 mph 60 % 0 in
01:38 41.5 °F 29.4 °F 30.15 in Calm   -999.0 mph 62 % 0 in
01:53 41.2 °F 29.6 °F 30.14 in SSE 1.7 mph -999.0 mph 63 % 0 in
02:08 41.2 °F 31.1 °F 30.15 in South 1.7 mph -999.0 mph 67 % 0 in
02:23 40.8 °F 30.3 °F 30.15 in Calm   -999.0 mph 66 % 0 in
02:38 40.6 °F 31.9 °F 30.15 in SSE 1.1 mph -999.0 mph 71 % 0 in
02:54 40.5 °F 32.2 °F 30.15 in Calm   -999.0 mph 72 % 0 in
03:09 40.1 °F 31.1 °F 30.15 in SSE 1.1 mph -999.0 mph 70 % 0 in
03:24 39.9 °F 31.9 °F 30.15 in Calm   -999.0 mph 73 % 0 in
03:39 39.7 °F 31.1 °F 30.15 in Calm   -999.0 mph 71 % 0 in
03:54 39.4 °F 32.5 °F 30.15 in Calm   -999.0 mph 76 % 0 in
04:10 39.4 °F 33.4 °F 30.15 in South 1.7 mph -999.0 mph 79 % 0 in
04:25 39.0 °F 33.0 °F 30.15 in SSE 1.1 mph -999.0 mph 79 % 0 in
04:40 38.8 °F 33.2 °F 30.15 in SSE 1.1 mph -999.0 mph 80 % 0 in
04:55 38.7 °F 33.4 °F 30.15 in South 1.7 mph -999.0 mph 81 % 0 in
05:10 38.3 °F 32.7 °F 30.15 in Calm   -999.0 mph 80 % 0 in
05:26 38.3 °F 32.7 °F 30.16 in Calm   -999.0 mph 80 % 0 in
05:41 38.3 °F 33.3 °F 30.16 in South 1.7 mph -999.0 mph 82 % 0 in
05:56 38.3 °F 33.3 °F 30.16 in South 2.2 mph -999.0 mph 82 % 0 in
06:11 38.1 °F 32.5 °F 30.16 in Calm   -999.0 mph 80 % 0 in
06:26 38.7 °F 33.1 °F 30.17 in Calm   -999.0 mph 80 % 0 in
06:42 38.7 °F 33.4 °F 30.17 in Calm   -999.0 mph 81 % 0 in
06:57 39.6 °F 34.6 °F 30.18 in Calm   -999.0 mph 82 % 0 in
07:12 39.9 °F 34.9 °F 30.18 in Calm   -999.0 mph 82 % 0 in
07:27 40.3 °F 35.5 °F 30.18 in Calm   -999.0 mph 83 % 0 in
07:43 41.9 °F 37.1 °F 30.18 in Calm   -999.0 mph 83 % 0 in
07:58 44.6 °F 37.8 °F 30.18 in Calm   -999.0 mph 77 % 0 in
08:13 46.0 °F 38.9 °F 30.18 in Calm   -999.0 mph 76 % 0 in
08:28 48.2 °F 38.5 °F 30.18 in NW 2.7 mph -999.0 mph 69 % 0 in
08:43 50.2 °F 38.1 °F 30.18 in Calm   -999.0 mph 63 % 0 in
08:59 53.8 °F 35.1 °F 30.18 in Calm   -999.0 mph 49 % 0 in
09:14 58.8 °F 33.9 °F 30.18 in NNW 4.2 mph -999.0 mph 39 % 0 in
09:29 62.4 °F 29.7 °F 30.19 in NW 3.2 mph -999.0 mph 29 % 0 in
09:44 64.0 °F 30.2 °F 30.19 in NNW 2.2 mph -999.0 mph 28 % 0 in
09:59 65.1 °F 28.4 °F 30.19 in North 3.2 mph -999.0 mph 25 % 0 in
10:15 66.0 °F 29.2 °F 30.19 in NW 4.2 mph -999.0 mph 25 % 0 in
10:30 66.4 °F 27.5 °F 30.19 in NE 1.7 mph -999.0 mph 23 % 0 in
10:46 67.5 °F 29.4 °F 30.19 in NW 4.7 mph -999.0 mph 24 % 0 in
11:01 69.1 °F 32.8 °F 30.19 in NW 3.7 mph -999.0 mph 26 % 0 in
11:16 70.0 °F 33.5 °F 30.19 in NNW 3.7 mph -999.0 mph 26 % 0 in
11:32 70.9 °F 35.2 °F 30.19 in NNW 3.2 mph -999.0 mph 27 % 0 in
11:47 72.3 °F 35.5 °F 30.19 in NNW 6.8 mph -999.0 mph 26 % 0 in
12:02 73.2 °F 35.3 °F 30.19 in NW 6.3 mph -999.0 mph 25 % 0 in
12:17 74.1 °F 36.0 °F 30.19 in NW 4.2 mph -999.0 mph 25 % 0 in
12:32 75.2 °F 34.9 °F 30.18 in WNW 4.2 mph -999.0 mph 23 % 0 in
12:48 75.6 °F 35.2 °F 30.18 in WNW 2.2 mph -999.0 mph 23 % 0 in
13:04 76.1 °F 33.3 °F 30.18 in NNW 6.8 mph -999.0 mph 21 % 0 in
13:19 75.6 °F 35.2 °F 30.18 in NW 7.8 mph -999.0 mph 23 % 0 in
13:34 76.8 °F 33.9 °F 30.18 in NE 5.3 mph -999.0 mph 21 % 0 in
13:50 77.0 °F 32.9 °F 30.18 in South 2.2 mph -999.0 mph 20 % 0 in
14:05 75.9 °F 35.4 °F 30.18 in SSE 2.2 mph -999.0 mph 23 % 0 in
14:20 76.8 °F 35.1 °F 30.18 in NW 7.8 mph -999.0 mph 22 % 0 in
14:36 74.7 °F 32.2 °F 30.18 in SW 4.2 mph -999.0 mph 21 % 0 in
14:51 76.8 °F 33.9 °F 30.18 in NW 6.8 mph -999.0 mph 21 % 0 in
15:06 76.5 °F 33.7 °F 30.18 in North 4.7 mph -999.0 mph 21 % 0 in
15:22 74.8 °F 32.2 °F 30.18 in South 4.7 mph -999.0 mph 21 % 0 in
15:37 75.4 °F 33.9 °F 30.17 in WNW 5.3 mph -999.0 mph 22 % 0 in
15:52 74.1 °F 31.7 °F 30.17 in ENE 2.2 mph -999.0 mph 21 % 0 in
16:07 73.6 °F 34.6 °F 30.17 in NW 4.7 mph -999.0 mph 24 % 0 in
16:22 73.9 °F 33.8 °F 30.17 in NW 3.2 mph -999.0 mph 23 % 0 in
16:38 75.6 °F 36.3 °F 30.17 in North 9.4 mph -999.0 mph 24 % 0 in
16:53 76.6 °F 34.9 °F 30.17 in North 5.3 mph -999.0 mph 22 % 0 in
17:08 74.1 °F 36.0 °F 30.18 in NNW 4.7 mph -999.0 mph 25 % 0 in
17:23 75.6 °F 35.2 °F 30.17 in WNW 2.7 mph -999.0 mph 23 % 0 in
17:39 75.2 °F 35.9 °F 30.17 in NNW 3.7 mph -999.0 mph 24 % 0 in
17:54 75.9 °F 36.5 °F 30.17 in SSE 3.2 mph -999.0 mph 24 % 0 in
18:09 74.5 °F 35.3 °F 30.17 in WNW 2.2 mph -999.0 mph 24 % 0 in
18:24 72.9 °F 35.0 °F 30.17 in East 2.7 mph -999.0 mph 25 % 0 in
18:40 73.0 °F 36.1 °F 30.17 in NW 2.7 mph -999.0 mph 26 % 0 in
18:55 70.5 °F 35.8 °F 30.18 in NNW 1.1 mph -999.0 mph 28 % 0 in
19:10 69.4 °F 36.6 °F 30.18 in ENE 2.7 mph -999.0 mph 30 % 0 in
19:26 64.9 °F 38.0 °F 30.18 in South 2.2 mph -999.0 mph 37 % 0 in
19:41 62.6 °F 39.8 °F 30.18 in SSW 1.7 mph -999.0 mph 43 % 0 in
19:56 61.0 °F 38.3 °F 30.19 in Calm   -999.0 mph 43 % 0 in
20:11 59.2 °F 37.3 °F 30.19 in Calm   -999.0 mph 44 % 0 in
20:26 57.6 °F 35.3 °F 30.19 in Calm   -999.0 mph 43 % 0 in
20:42 55.9 °F 32.5 °F 30.19 in South 1.7 mph -999.0 mph 41 % 0 in
20:57 55.0 °F 28.5 °F 30.20 in SSE 1.7 mph -999.0 mph 36 % 0 in
21:12 54.7 °F 27.6 °F 30.20 in South 1.1 mph -999.0 mph 35 % 0 in
21:27 54.0 °F 26.9 °F 30.21 in Calm   -999.0 mph 35 % 0 in
21:42 52.7 °F 26.5 °F 30.21 in Calm   -999.0 mph 36 % 0 in
21:58 51.6 °F 26.2 °F 30.21 in Calm   -999.0 mph 37 % 0 in
22:13 50.9 °F 26.8 °F 30.21 in Calm   -999.0 mph 39 % 0 in
22:28 50.0 °F 27.2 °F 30.21 in Calm   -999.0 mph 41 % 0 in
22:43 49.3 °F 26.6 °F 30.22 in Calm   -999.0 mph 41 % 0 in
22:58 48.7 °F 27.2 °F 30.22 in Calm   -999.0 mph 43 % 0 in
23:14 48.2 °F 26.7 °F 30.21 in Calm   -999.0 mph 43 % 0 in
23:29 47.8 °F 27.5 °F 30.21 in Calm   -999.0 mph 45 % 0 in
23:44 47.3 °F 26.5 °F 30.21 in South 2.2 mph -999.0 mph 44 % 0 in
23:59 46.9 °F 27.2 °F 30.21 in South 1.7 mph -999.0 mph 46 % 0 in
Big Bear CA Weather
Compliments of Weather Underground - 1.5 mb